UKV1254 EGPH-EGNX
Flight info
| Callsign | UKV1254 |
|---|---|
| Flight time | 0h 51m |
| Altitude | 27000 |
| Route | GOSAM P600 FENIK L612 NAVSO DCT AKOMU DCT VAMEB UL612 CROFT |
| Aircraft | B738/M-SDE2E3FGHIRWXY/LB1 |
Departure
| Time | 2026-05-06 08:59 |
|---|---|
| Airport | Edinburgh Airport (EGPH) |
Arrival
| Time | 2026-05-06 09:50 |
|---|---|
| Airport | East Midlands Airport (EGNX) |
| Time | Latitude | Longitude | Altitude | Speed | Heading |
|---|---|---|---|---|---|
| 2026-05-06 08:40 | 55.94798 | -3.35683 | 116 ft | 0 kts | 208° |
| 2026-05-06 08:47 | 55.94807 | -3.35674 | 111 ft | 3 kts | 208° |
| 2026-05-06 08:47 | 55.94823 | -3.35658 | 112 ft | 3 kts | 208° |
| 2026-05-06 08:47 | 55.94840 | -3.35642 | 111 ft | 3 kts | 227° |
| 2026-05-06 08:48 | 55.94847 | -3.35613 | 113 ft | 3 kts | 291° |
| 2026-05-06 08:48 | 55.94846 | -3.35607 | 111 ft | 0 kts | 304° |
| 2026-05-06 08:52 | 55.94851 | -3.35617 | 112 ft | 2 kts | 309° |
| 2026-05-06 08:53 | 55.94865 | -3.35648 | 114 ft | 5 kts | 306° |
| 2026-05-06 08:53 | 55.94889 | -3.35719 | 113 ft | 8 kts | 300° |
| 2026-05-06 08:53 | 55.94921 | -3.35816 | 114 ft | 10 kts | 306° |
| 2026-05-06 08:53 | 55.94982 | -3.35853 | 115 ft | 10 kts | 14° |
| 2026-05-06 08:54 | 55.95044 | -3.35800 | 115 ft | 7 kts | 27° |
| 2026-05-06 08:54 | 55.95090 | -3.35792 | 113 ft | 7 kts | 331° |
| 2026-05-06 08:54 | 55.95118 | -3.35865 | 112 ft | 8 kts | 299° |
| 2026-05-06 08:54 | 55.95158 | -3.35937 | 113 ft | 9 kts | 326° |
| 2026-05-06 08:55 | 55.95209 | -3.35984 | 114 ft | 7 kts | 349° |
| 2026-05-06 08:55 | 55.95250 | -3.35936 | 115 ft | 8 kts | 54° |
| 2026-05-06 08:55 | 55.95280 | -3.35853 | 115 ft | 8 kts | 59° |
| 2026-05-06 08:55 | 55.95310 | -3.35760 | 113 ft | 9 kts | 63° |
| 2026-05-06 08:56 | 55.95344 | -3.35660 | 113 ft | 10 kts | 58° |
| 2026-05-06 08:56 | 55.95380 | -3.35555 | 115 ft | 10 kts | 58° |
| 2026-05-06 08:56 | 55.95417 | -3.35443 | 114 ft | 10 kts | 59° |
| 2026-05-06 08:56 | 55.95460 | -3.35405 | 112 ft | 3 kts | 345° |
| 2026-05-06 08:57 | 55.95482 | -3.35422 | 114 ft | 4 kts | 335° |
| 2026-05-06 08:57 | 55.95516 | -3.35454 | 114 ft | 7 kts | 330° |
| 2026-05-06 08:57 | 55.95565 | -3.35508 | 110 ft | 6 kts | 328° |
| 2026-05-06 08:57 | 55.95573 | -3.35518 | 111 ft | 4 kts | 320° |
| 2026-05-06 08:58 | 55.95570 | -3.35564 | 112 ft | 4 kts | 244° |
| 2026-05-06 08:58 | 55.95569 | -3.35568 | 112 ft | 0 kts | 244° |
| 2026-05-06 08:58 | 55.95544 | -3.35645 | 112 ft | 23 kts | 240° |
| 2026-05-06 08:58 | 55.95366 | -3.36179 | 108 ft | 81 kts | 240° |
| 2026-05-06 08:59 | 55.94968 | -3.37349 | 111 ft | 137 kts | 238° |
| 2026-05-06 08:59 | 55.94414 | -3.39058 | 236 ft | 173 kts | 241° |
| 2026-05-06 08:59 | 55.93845 | -3.40904 | 974 ft | 169 kts | 241° |
| 2026-05-06 08:59 | 55.93225 | -3.42795 | 1468 ft | 186 kts | 237° |
| 2026-05-06 09:00 | 55.92503 | -3.44826 | 1944 ft | 204 kts | 238° |
| 2026-05-06 09:00 | 55.91795 | -3.47180 | 2514 ft | 227 kts | 245° |
| 2026-05-06 09:00 | 55.91059 | -3.49799 | 3205 ft | 244 kts | 241° |
| 2026-05-06 09:00 | 55.90422 | -3.52716 | 3996 ft | 261 kts | 254° |
| 2026-05-06 09:01 | 55.89973 | -3.55898 | 4995 ft | 266 kts | 259° |
| 2026-05-06 09:01 | 55.89620 | -3.59145 | 6055 ft | 268 kts | 262° |
| 2026-05-06 09:01 | 55.89316 | -3.62416 | 7156 ft | 267 kts | 263° |
| 2026-05-06 09:01 | 55.89015 | -3.65709 | 8141 ft | 271 kts | 263° |
| 2026-05-06 09:02 | 55.88692 | -3.69028 | 9157 ft | 274 kts | 263° |
| 2026-05-06 09:02 | 55.88352 | -3.72392 | 10126 ft | 278 kts | 262° |
| 2026-05-06 09:02 | 55.87997 | -3.75875 | 10737 ft | 294 kts | 262° |
| 2026-05-06 09:02 | 55.87627 | -3.79561 | 11262 ft | 311 kts | 262° |
| 2026-05-06 09:03 | 55.87244 | -3.83454 | 11842 ft | 325 kts | 262° |
| 2026-05-06 09:03 | 55.86854 | -3.87459 | 12722 ft | 330 kts | 262° |
| 2026-05-06 09:03 | 55.86457 | -3.91502 | 13685 ft | 333 kts | 262° |
| 2026-05-06 09:03 | 55.86053 | -3.95534 | 14577 ft | 336 kts | 262° |
| 2026-05-06 09:04 | 55.85636 | -3.99651 | 15458 ft | 339 kts | 262° |
| 2026-05-06 09:04 | 55.85214 | -4.03803 | 16335 ft | 343 kts | 262° |
| 2026-05-06 09:04 | 55.84787 | -4.07991 | 17191 ft | 347 kts | 261° |
| 2026-05-06 09:04 | 55.83968 | -4.12065 | 18031 ft | 353 kts | 244° |
| 2026-05-06 09:05 | 55.82476 | -4.15576 | 18797 ft | 362 kts | 227° |
| 2026-05-06 09:05 | 55.80478 | -4.18331 | 19567 ft | 366 kts | 220° |
| 2026-05-06 09:05 | 55.78370 | -4.20933 | 20318 ft | 370 kts | 218° |
| 2026-05-06 09:05 | 55.76195 | -4.23521 | 21063 ft | 374 kts | 217° |
| 2026-05-06 09:06 | 55.73813 | -4.25519 | 21748 ft | 384 kts | 202° |
| 2026-05-06 09:06 | 55.71156 | -4.26374 | 22432 ft | 395 kts | 187° |
| 2026-05-06 09:06 | 55.68435 | -4.25820 | 23077 ft | 407 kts | 169° |
| 2026-05-06 09:06 | 55.65796 | -4.23853 | 23746 ft | 415 kts | 158° |
| 2026-05-06 09:07 | 55.63232 | -4.21423 | 24284 ft | 419 kts | 155° |
| 2026-05-06 09:07 | 55.60721 | -4.18809 | 24999 ft | 418 kts | 154° |
| 2026-05-06 09:07 | 55.58224 | -4.16199 | 25701 ft | 416 kts | 154° |
| 2026-05-06 09:07 | 55.55705 | -4.13681 | 26364 ft | 415 kts | 155° |
| 2026-05-06 09:08 | 55.53177 | -4.11257 | 26995 ft | 415 kts | 156° |
| 2026-05-06 09:08 | 55.50599 | -4.08820 | 27081 ft | 424 kts | 156° |
| 2026-05-06 09:08 | 55.48020 | -4.06339 | 27087 ft | 418 kts | 155° |
| 2026-05-06 09:08 | 55.45499 | -4.03863 | 27066 ft | 413 kts | 155° |
| 2026-05-06 09:09 | 55.42982 | -4.01387 | 27088 ft | 413 kts | 155° |
| 2026-05-06 09:09 | 55.40467 | -3.98939 | 27102 ft | 412 kts | 155° |
| 2026-05-06 09:09 | 55.37948 | -3.96511 | 27099 ft | 413 kts | 156° |
| 2026-05-06 09:09 | 55.35431 | -3.94094 | 27096 ft | 412 kts | 156° |
| 2026-05-06 09:10 | 55.32908 | -3.91666 | 27094 ft | 412 kts | 155° |
| 2026-05-06 09:10 | 55.30396 | -3.89245 | 27094 ft | 413 kts | 155° |
| 2026-05-06 09:10 | 55.27881 | -3.86823 | 27091 ft | 413 kts | 155° |
| 2026-05-06 09:10 | 55.25363 | -3.84404 | 27090 ft | 411 kts | 156° |
| 2026-05-06 09:11 | 55.22866 | -3.82009 | 27093 ft | 409 kts | 156° |
| 2026-05-06 09:11 | 55.20347 | -3.79659 | 27081 ft | 410 kts | 157° |
| 2026-05-06 09:11 | 55.17828 | -3.77481 | 27093 ft | 408 kts | 159° |
| 2026-05-06 09:11 | 55.15253 | -3.75354 | 27099 ft | 408 kts | 159° |
| 2026-05-06 09:12 | 55.12689 | -3.73225 | 27095 ft | 409 kts | 159° |
| 2026-05-06 09:12 | 55.10131 | -3.71042 | 27092 ft | 409 kts | 158° |
| 2026-05-06 09:12 | 55.07582 | -3.68827 | 27087 ft | 409 kts | 158° |
| 2026-05-06 09:12 | 55.05035 | -3.66617 | 27088 ft | 409 kts | 158° |
| 2026-05-06 09:13 | 55.02481 | -3.64427 | 27089 ft | 409 kts | 158° |
| 2026-05-06 09:13 | 54.99930 | -3.62259 | 27089 ft | 409 kts | 159° |
| 2026-05-06 09:13 | 54.97373 | -3.60092 | 27087 ft | 409 kts | 158° |
| 2026-05-06 09:13 | 54.94784 | -3.57894 | 27068 ft | 409 kts | 158° |
| 2026-05-06 09:14 | 54.92232 | -3.55722 | 27090 ft | 408 kts | 158° |
| 2026-05-06 09:14 | 54.89714 | -3.53582 | 27084 ft | 408 kts | 158° |
| 2026-05-06 09:14 | 54.87160 | -3.51416 | 27078 ft | 408 kts | 158° |
| 2026-05-06 09:14 | 54.84605 | -3.49255 | 27086 ft | 408 kts | 159° |
| 2026-05-06 09:15 | 54.82054 | -3.47101 | 27086 ft | 408 kts | 159° |
| 2026-05-06 09:15 | 54.79499 | -3.44946 | 27081 ft | 408 kts | 159° |
| 2026-05-06 09:15 | 54.76940 | -3.42790 | 27079 ft | 408 kts | 159° |
| 2026-05-06 09:15 | 54.74387 | -3.40642 | 27090 ft | 408 kts | 159° |
| 2026-05-06 09:16 | 54.71826 | -3.38491 | 27089 ft | 408 kts | 159° |
| 2026-05-06 09:16 | 54.69266 | -3.36342 | 27074 ft | 408 kts | 159° |
| 2026-05-06 09:16 | 54.66711 | -3.34201 | 27084 ft | 408 kts | 159° |
| 2026-05-06 09:16 | 54.64157 | -3.32065 | 27084 ft | 408 kts | 159° |
| 2026-05-06 09:17 | 54.61599 | -3.29929 | 27092 ft | 408 kts | 159° |
| 2026-05-06 09:17 | 54.59035 | -3.27790 | 27092 ft | 408 kts | 159° |
| 2026-05-06 09:17 | 54.56476 | -3.25658 | 27090 ft | 408 kts | 159° |
| 2026-05-06 09:17 | 54.53919 | -3.23530 | 27094 ft | 408 kts | 159° |
| 2026-05-06 09:18 | 54.51363 | -3.21407 | 27079 ft | 408 kts | 159° |
| 2026-05-06 09:18 | 54.48804 | -3.19284 | 27073 ft | 407 kts | 159° |
| 2026-05-06 09:18 | 54.46249 | -3.17167 | 27073 ft | 407 kts | 159° |
| 2026-05-06 09:18 | 54.43691 | -3.15054 | 27024 ft | 408 kts | 159° |
| 2026-05-06 09:19 | 54.41139 | -3.12945 | 27052 ft | 406 kts | 159° |
| 2026-05-06 09:19 | 54.38584 | -3.10837 | 27062 ft | 408 kts | 159° |
| 2026-05-06 09:19 | 54.36025 | -3.08728 | 27066 ft | 407 kts | 159° |
| 2026-05-06 09:19 | 54.33471 | -3.06626 | 27074 ft | 407 kts | 159° |
| 2026-05-06 09:20 | 54.30913 | -3.04525 | 27078 ft | 408 kts | 159° |
| 2026-05-06 09:20 | 54.28348 | -3.02421 | 27068 ft | 407 kts | 159° |
| 2026-05-06 09:20 | 54.25794 | -3.00328 | 27072 ft | 407 kts | 159° |
| 2026-05-06 09:20 | 54.23263 | -2.98258 | 27083 ft | 408 kts | 159° |
| 2026-05-06 09:21 | 54.20671 | -2.96143 | 27057 ft | 407 kts | 159° |
| 2026-05-06 09:21 | 54.18151 | -2.94086 | 27073 ft | 407 kts | 159° |
| 2026-05-06 09:21 | 54.15586 | -2.92027 | 27083 ft | 408 kts | 160° |
| 2026-05-06 09:21 | 54.12989 | -2.90099 | 27087 ft | 406 kts | 162° |
| 2026-05-06 09:22 | 54.10375 | -2.88267 | 27081 ft | 406 kts | 162° |
| 2026-05-06 09:22 | 54.07755 | -2.86435 | 27077 ft | 406 kts | 162° |
| 2026-05-06 09:22 | 54.05148 | -2.84562 | 27075 ft | 406 kts | 161° |
| 2026-05-06 09:22 | 54.02548 | -2.82652 | 27076 ft | 407 kts | 161° |
| 2026-05-06 09:23 | 53.99947 | -2.80735 | 27076 ft | 407 kts | 161° |
| 2026-05-06 09:23 | 53.97345 | -2.78837 | 27077 ft | 406 kts | 161° |
| 2026-05-06 09:23 | 53.94740 | -2.76956 | 27068 ft | 407 kts | 161° |
| 2026-05-06 09:23 | 53.92133 | -2.75082 | 27077 ft | 407 kts | 161° |
| 2026-05-06 09:24 | 53.89522 | -2.73200 | 27093 ft | 407 kts | 161° |
| 2026-05-06 09:24 | 53.86914 | -2.71317 | 27089 ft | 407 kts | 161° |
| 2026-05-06 09:24 | 53.84308 | -2.69437 | 27084 ft | 407 kts | 161° |
| 2026-05-06 09:24 | 53.81700 | -2.67562 | 27080 ft | 407 kts | 161° |
| 2026-05-06 09:25 | 53.79091 | -2.65691 | 27078 ft | 407 kts | 161° |
| 2026-05-06 09:25 | 53.76484 | -2.63823 | 27074 ft | 407 kts | 161° |
| 2026-05-06 09:25 | 53.73875 | -2.61954 | 27077 ft | 407 kts | 161° |
| 2026-05-06 09:25 | 53.71300 | -2.60112 | 27073 ft | 407 kts | 161° |
| 2026-05-06 09:26 | 53.68695 | -2.58252 | 27073 ft | 406 kts | 161° |
| 2026-05-06 09:26 | 53.66089 | -2.56394 | 27085 ft | 406 kts | 161° |
| 2026-05-06 09:26 | 53.63481 | -2.54530 | 26919 ft | 406 kts | 160° |
| 2026-05-06 09:26 | 53.61014 | -2.52239 | 26630 ft | 401 kts | 153° |
| 2026-05-06 09:27 | 53.58676 | -2.49846 | 26365 ft | 387 kts | 153° |
| 2026-05-06 09:27 | 53.56394 | -2.47489 | 25665 ft | 386 kts | 152° |
| 2026-05-06 09:27 | 53.54097 | -2.45119 | 24906 ft | 392 kts | 152° |
| 2026-05-06 09:27 | 53.51729 | -2.42696 | 24141 ft | 402 kts | 152° |
| 2026-05-06 09:28 | 53.49325 | -2.40240 | 23462 ft | 407 kts | 152° |
| 2026-05-06 09:28 | 53.46908 | -2.37771 | 22810 ft | 405 kts | 152° |
| 2026-05-06 09:28 | 53.44519 | -2.35323 | 22221 ft | 399 kts | 152° |
| 2026-05-06 09:28 | 53.42960 | -2.33726 | 21844 ft | 394 kts | 152° |
| 2026-05-06 09:29 | 53.40636 | -2.31349 | 21284 ft | 389 kts | 152° |
| 2026-05-06 09:29 | 53.38338 | -2.29009 | 20718 ft | 384 kts | 152° |
| 2026-05-06 09:29 | 53.36070 | -2.26703 | 20184 ft | 379 kts | 152° |
| 2026-05-06 09:29 | 53.33847 | -2.24497 | 20101 ft | 364 kts | 154° |
| 2026-05-06 09:30 | 53.31661 | -2.22469 | 19764 ft | 357 kts | 155° |
| 2026-05-06 09:30 | 53.29453 | -2.20499 | 19168 ft | 362 kts | 155° |
| 2026-05-06 09:30 | 53.27225 | -2.18498 | 18672 ft | 364 kts | 154° |
| 2026-05-06 09:30 | 53.25005 | -2.16456 | 18251 ft | 364 kts | 154° |
| 2026-05-06 09:31 | 53.22799 | -2.14401 | 17820 ft | 361 kts | 154° |
| 2026-05-06 09:31 | 53.20612 | -2.12366 | 17438 ft | 358 kts | 154° |
| 2026-05-06 09:31 | 53.18442 | -2.10365 | 17065 ft | 355 kts | 154° |
| 2026-05-06 09:31 | 53.16294 | -2.08362 | 16682 ft | 353 kts | 150° |
| 2026-05-06 09:32 | 53.14286 | -2.06034 | 16317 ft | 349 kts | 146° |
| 2026-05-06 09:32 | 53.12333 | -2.03648 | 15692 ft | 347 kts | 146° |
| 2026-05-06 09:32 | 53.10396 | -2.01264 | 15101 ft | 347 kts | 146° |
| 2026-05-06 09:32 | 53.08455 | -1.98879 | 14566 ft | 344 kts | 146° |
| 2026-05-06 09:33 | 53.06528 | -1.96520 | 14007 ft | 342 kts | 146° |
| 2026-05-06 09:33 | 53.04620 | -1.94213 | 13424 ft | 337 kts | 146° |
| 2026-05-06 09:33 | 53.02725 | -1.91936 | 12793 ft | 335 kts | 146° |
| 2026-05-06 09:33 | 53.00930 | -1.89518 | 12131 ft | 333 kts | 132° |
| 2026-05-06 09:34 | 52.99739 | -1.86244 | 11636 ft | 331 kts | 109° |
| 2026-05-06 09:34 | 52.99320 | -1.82520 | 11228 ft | 326 kts | 93° |
| 2026-05-06 09:34 | 52.99214 | -1.78795 | 10847 ft | 322 kts | 91° |
| 2026-05-06 09:34 | 52.99139 | -1.75097 | 10512 ft | 318 kts | 91° |
| 2026-05-06 09:35 | 52.99058 | -1.71521 | 10363 ft | 302 kts | 91° |
| 2026-05-06 09:35 | 52.98977 | -1.68126 | 10177 ft | 288 kts | 91° |
| 2026-05-06 09:35 | 52.98898 | -1.64846 | 9812 ft | 282 kts | 90° |
| 2026-05-06 09:35 | 52.98812 | -1.61610 | 9390 ft | 279 kts | 91° |
| 2026-05-06 09:36 | 52.98715 | -1.58478 | 9267 ft | 264 kts | 91° |
| 2026-05-06 09:36 | 52.98626 | -1.55553 | 9169 ft | 250 kts | 91° |
| 2026-05-06 09:36 | 52.98536 | -1.52681 | 8889 ft | 244 kts | 91° |
| 2026-05-06 09:36 | 52.98441 | -1.49886 | 8577 ft | 242 kts | 91° |
| 2026-05-06 09:37 | 52.98334 | -1.47104 | 8235 ft | 240 kts | 90° |
| 2026-05-06 09:37 | 52.98226 | -1.44379 | 7897 ft | 238 kts | 91° |
| 2026-05-06 09:37 | 52.98117 | -1.41650 | 7571 ft | 236 kts | 91° |
| 2026-05-06 09:37 | 52.97998 | -1.38941 | 7244 ft | 235 kts | 91° |
| 2026-05-06 09:38 | 52.97872 | -1.36249 | 6917 ft | 233 kts | 91° |
| 2026-05-06 09:38 | 52.97707 | -1.33583 | 6597 ft | 233 kts | 100° |
| 2026-05-06 09:38 | 52.96901 | -1.31238 | 6292 ft | 239 kts | 134° |
| 2026-05-06 09:38 | 52.95450 | -1.29931 | 5962 ft | 241 kts | 168° |
| 2026-05-06 09:39 | 52.93801 | -1.30080 | 5649 ft | 238 kts | 202° |
| 2026-05-06 09:39 | 52.92482 | -1.31624 | 5378 ft | 233 kts | 236° |
| 2026-05-06 09:39 | 52.91673 | -1.33925 | 5078 ft | 231 kts | 248° |
| 2026-05-06 09:39 | 52.91017 | -1.36357 | 5024 ft | 232 kts | 251° |
| 2026-05-06 09:40 | 52.90384 | -1.38829 | 5014 ft | 234 kts | 251° |
| 2026-05-06 09:40 | 52.89755 | -1.41292 | 5017 ft | 229 kts | 251° |
| 2026-05-06 09:40 | 52.88738 | -1.45892 | 5009 ft | 200 kts | 272° |
| 2026-05-06 09:41 | 52.88751 | -1.48125 | 4733 ft | 193 kts | 279° |
| 2026-05-06 09:41 | 52.88864 | -1.50334 | 4365 ft | 191 kts | 281° |
| 2026-05-06 09:41 | 52.88999 | -1.52525 | 3958 ft | 191 kts | 281° |
| 2026-05-06 09:41 | 52.89144 | -1.54712 | 3575 ft | 191 kts | 281° |
| 2026-05-06 09:42 | 52.89298 | -1.56899 | 3170 ft | 192 kts | 281° |
| 2026-05-06 09:42 | 52.89455 | -1.59092 | 2780 ft | 192 kts | 281° |
| 2026-05-06 09:42 | 52.89606 | -1.61284 | 2418 ft | 190 kts | 281° |
| 2026-05-06 09:42 | 52.89753 | -1.63454 | 2081 ft | 190 kts | 282° |
| 2026-05-06 09:43 | 52.89892 | -1.65637 | 2027 ft | 192 kts | 280° |
| 2026-05-06 09:43 | 52.90039 | -1.67820 | 2022 ft | 190 kts | 281° |
| 2026-05-06 09:43 | 52.90178 | -1.69989 | 2013 ft | 190 kts | 277° |
| 2026-05-06 09:43 | 52.89819 | -1.72098 | 1945 ft | 194 kts | 238° |
| 2026-05-06 09:44 | 52.88752 | -1.73464 | 1939 ft | 199 kts | 199° |
| 2026-05-06 09:44 | 52.87429 | -1.73876 | 1952 ft | 192 kts | 184° |
| 2026-05-06 09:44 | 52.86083 | -1.74024 | 1995 ft | 196 kts | 181° |
| 2026-05-06 09:44 | 52.84735 | -1.74074 | 1976 ft | 189 kts | 171° |
| 2026-05-06 09:45 | 52.83592 | -1.73136 | 1969 ft | 184 kts | 133° |
| 2026-05-06 09:45 | 52.82825 | -1.71520 | 1978 ft | 177 kts | 114° |
| 2026-05-06 09:45 | 52.82448 | -1.69583 | 1977 ft | 175 kts | 92° |
| 2026-05-06 09:45 | 52.82421 | -1.67596 | 1997 ft | 177 kts | 88° |
| 2026-05-06 09:46 | 52.82446 | -1.65575 | 2004 ft | 174 kts | 87° |
| 2026-05-06 09:46 | 52.82483 | -1.63549 | 2008 ft | 174 kts | 86° |
| 2026-05-06 09:46 | 52.82523 | -1.61571 | 2030 ft | 177 kts | 85° |
| 2026-05-06 09:46 | 52.82565 | -1.59534 | 2028 ft | 173 kts | 86° |
| 2026-05-06 09:47 | 52.82606 | -1.57540 | 2021 ft | 176 kts | 86° |
| 2026-05-06 09:47 | 52.82646 | -1.55576 | 2042 ft | 172 kts | 86° |
| 2026-05-06 09:47 | 52.82688 | -1.53551 | 2041 ft | 176 kts | 86° |
| 2026-05-06 09:47 | 52.82727 | -1.51576 | 2023 ft | 168 kts | 85° |
| 2026-05-06 09:48 | 52.82764 | -1.49716 | 2066 ft | 163 kts | 84° |
| 2026-05-06 09:48 | 52.82801 | -1.47867 | 2057 ft | 154 kts | 84° |
| 2026-05-06 09:48 | 52.82837 | -1.46064 | 1754 ft | 155 kts | 84° |
| 2026-05-06 09:48 | 52.82867 | -1.44333 | 1578 ft | 150 kts | 84° |
| 2026-05-06 09:49 | 52.82894 | -1.42620 | 1440 ft | 147 kts | 84° |
| 2026-05-06 09:49 | 52.82945 | -1.40944 | 1218 ft | 143 kts | 82° |
| 2026-05-06 09:49 | 52.83008 | -1.39287 | 935 ft | 145 kts | 84° |
| 2026-05-06 09:49 | 52.83021 | -1.37602 | 744 ft | 149 kts | 88° |
| 2026-05-06 09:50 | 52.83049 | -1.35877 | 508 ft | 150 kts | 84° |
| 2026-05-06 09:50 | 52.83078 | -1.34170 | 315 ft | 145 kts | 85° |
| 2026-05-06 09:50 | 52.83106 | -1.32752 | 301 ft | 92 kts | 88° |
| 2026-05-06 09:50 | 52.83114 | -1.32075 | 305 ft | 29 kts | 89° |
| 2026-05-06 09:51 | 52.83120 | -1.31743 | 309 ft | 28 kts | 88° |
| 2026-05-06 09:51 | 52.83125 | -1.31464 | 307 ft | 19 kts | 89° |
| 2026-05-06 09:51 | 52.83103 | -1.31332 | 304 ft | 12 kts | 147° |
| 2026-05-06 09:51 | 52.83019 | -1.31318 | 301 ft | 9 kts | 179° |
| 2026-05-06 09:52 | 52.82971 | -1.31345 | 302 ft | 8 kts | 229° |
| 2026-05-06 09:52 | 52.82957 | -1.31427 | 303 ft | 8 kts | 265° |
| 2026-05-06 09:52 | 52.82956 | -1.31515 | 303 ft | 8 kts | 270° |
| 2026-05-06 09:52 | 52.82955 | -1.31604 | 300 ft | 8 kts | 266° |
| 2026-05-06 09:53 | 52.82952 | -1.31695 | 300 ft | 8 kts | 268° |
| 2026-05-06 09:53 | 52.82950 | -1.31787 | 300 ft | 8 kts | 268° |
| 2026-05-06 09:53 | 52.82948 | -1.31879 | 300 ft | 8 kts | 268° |
| 2026-05-06 09:53 | 52.82946 | -1.31972 | 300 ft | 8 kts | 269° |
| 2026-05-06 09:54 | 52.82945 | -1.32067 | 300 ft | 8 kts | 268° |
| 2026-05-06 09:54 | 52.82943 | -1.32164 | 300 ft | 8 kts | 268° |
| 2026-05-06 09:54 | 52.82941 | -1.32262 | 300 ft | 8 kts | 267° |
| 2026-05-06 09:54 | 52.82939 | -1.32357 | 300 ft | 8 kts | 269° |
| 2026-05-06 09:55 | 52.82937 | -1.32449 | 300 ft | 8 kts | 268° |
| 2026-05-06 09:55 | 52.82935 | -1.32547 | 300 ft | 9 kts | 268° |
| 2026-05-06 09:55 | 52.82933 | -1.32649 | 300 ft | 9 kts | 268° |
| 2026-05-06 09:55 | 52.82931 | -1.32745 | 302 ft | 8 kts | 268° |
| 2026-05-06 09:56 | 52.82930 | -1.32830 | 301 ft | 7 kts | 269° |
| 2026-05-06 09:56 | 52.82929 | -1.32908 | 302 ft | 7 kts | 268° |
| 2026-05-06 09:56 | 52.82928 | -1.32989 | 301 ft | 7 kts | 268° |
| 2026-05-06 09:56 | 52.82926 | -1.33080 | 301 ft | 8 kts | 268° |
| 2026-05-06 09:57 | 52.82907 | -1.33153 | 300 ft | 7 kts | 212° |
| 2026-05-06 09:57 | 52.82872 | -1.33188 | 300 ft | 5 kts | 254° |
| 2026-05-06 09:57 | 52.82865 | -1.33240 | 300 ft | 2 kts | 249° |
| 2026-05-06 09:57 | 52.82858 | -1.33261 | 302 ft | 0 kts | 238° |